sensor_id;sensor_type;location;lat;lon;timestamp;P1;durP1;ratioP1;P2;durP2;ratioP2
37543;SDS011;23385;52.038;20.322;2022-10-16T00:00:40;17.97;;;11.80;;
37543;SDS011;23385;52.038;20.322;2022-10-16T00:03:08;14.73;;;12.60;;
37543;SDS011;23385;52.038;20.322;2022-10-16T00:05:39;15.77;;;12.83;;
37543;SDS011;23385;52.038;20.322;2022-10-16T00:08:10;19.50;;;12.63;;
37543;SDS011;23385;52.038;20.322;2022-10-16T00:10:37;20.87;;;12.80;;
37543;SDS011;23385;52.038;20.322;2022-10-16T00:13:04;17.50;;;12.30;;
37543;SDS011;23385;52.038;20.322;2022-10-16T00:15:31;17.70;;;12.53;;
37543;SDS011;23385;52.038;20.322;2022-10-16T00:18:01;16.50;;;12.30;;
37543;SDS011;23385;52.038;20.322;2022-10-16T00:20:28;18.37;;;13.67;;
37543;SDS011;23385;52.038;20.322;2022-10-16T00:22:54;19.13;;;13.40;;
37543;SDS011;23385;52.038;20.322;2022-10-16T00:25:20;19.87;;;13.30;;
37543;SDS011;23385;52.038;20.322;2022-10-16T00:27:46;18.93;;;13.23;;
37543;SDS011;23385;52.038;20.322;2022-10-16T00:30:11;16.37;;;12.43;;
37543;SDS011;23385;52.038;20.322;2022-10-16T00:32:37;17.37;;;13.10;;
37543;SDS011;23385;52.038;20.322;2022-10-16T00:35:03;17.97;;;12.93;;
37543;SDS011;23385;52.038;20.322;2022-10-16T00:37:33;20.57;;;13.80;;
37543;SDS011;23385;52.038;20.322;2022-10-16T00:39:59;19.80;;;12.70;;
37543;SDS011;23385;52.038;20.322;2022-10-16T00:42:26;16.37;;;13.50;;
37543;SDS011;23385;52.038;20.322;2022-10-16T00:44:53;19.73;;;13.53;;
37543;SDS011;23385;52.038;20.322;2022-10-16T00:47:26;20.47;;;13.73;;
37543;SDS011;23385;52.038;20.322;2022-10-16T00:49:58;19.03;;;14.10;;
37543;SDS011;23385;52.038;20.322;2022-10-16T00:52:52;20.50;;;13.77;;
37543;SDS011;23385;52.038;20.322;2022-10-16T00:55:19;18.07;;;14.20;;
37543;SDS011;23385;52.038;20.322;2022-10-16T00:57:47;18.27;;;14.13;;
37543;SDS011;23385;52.038;20.322;2022-10-16T01:00:19;18.63;;;14.03;;
37543;SDS011;23385;52.038;20.322;2022-10-16T01:02:56;20.17;;;13.73;;
37543;SDS011;23385;52.038;20.322;2022-10-16T01:05:24;20.77;;;14.60;;
37543;SDS011;23385;52.038;20.322;2022-10-16T01:08:09;20.70;;;14.20;;
37543;SDS011;23385;52.038;20.322;2022-10-16T01:11:04;22.40;;;15.47;;
37543;SDS011;23385;52.038;20.322;2022-10-16T01:13:38;21.60;;;14.80;;
37543;SDS011;23385;52.038;20.322;2022-10-16T01:16:13;21.77;;;14.17;;
37543;SDS011;23385;52.038;20.322;2022-10-16T01:18:45;24.27;;;14.93;;
37543;SDS011;23385;52.038;20.322;2022-10-16T01:21:28;21.33;;;14.60;;
37543;SDS011;23385;52.038;20.322;2022-10-16T01:38:12;25.80;;;14.87;;
37543;SDS011;23385;52.038;20.322;2022-10-16T01:40:46;19.57;;;14.53;;
37543;SDS011;23385;52.038;20.322;2022-10-16T01:43:16;21.87;;;15.60;;
37543;SDS011;23385;52.038;20.322;2022-10-16T01:45:46;24.00;;;15.60;;
37543;SDS011;23385;52.038;20.322;2022-10-16T01:48:13;21.43;;;14.40;;
37543;SDS011;23385;52.038;20.322;2022-10-16T01:50:43;20.47;;;15.67;;
37543;SDS011;23385;52.038;20.322;2022-10-16T01:53:13;20.47;;;15.30;;
37543;SDS011;23385;52.038;20.322;2022-10-16T01:55:44;22.00;;;15.07;;
37543;SDS011;23385;52.038;20.322;2022-10-16T01:58:13;23.07;;;15.77;;
37543;SDS011;23385;52.038;20.322;2022-10-16T02:00:39;24.47;;;15.97;;
37543;SDS011;23385;52.038;20.322;2022-10-16T02:03:08;28.10;;;15.67;;
37543;SDS011;23385;52.038;20.322;2022-10-16T02:05:39;20.00;;;15.13;;
37543;SDS011;23385;52.038;20.322;2022-10-16T02:08:16;24.87;;;15.23;;
37543;SDS011;23385;52.038;20.322;2022-10-16T02:10:43;23.67;;;15.80;;
37543;SDS011;23385;52.038;20.322;2022-10-16T02:18:21;29.70;;;16.43;;
37543;SDS011;23385;52.038;20.322;2022-10-16T02:20:57;22.60;;;15.47;;
37543;SDS011;23385;52.038;20.322;2022-10-16T02:23:37;26.53;;;16.77;;
37543;SDS011;23385;52.038;20.322;2022-10-16T02:26:18;20.07;;;15.53;;
37543;SDS011;23385;52.038;20.322;2022-10-16T02:28:59;22.20;;;15.87;;
37543;SDS011;23385;52.038;20.322;2022-10-16T02:31:27;20.97;;;16.57;;
37543;SDS011;23385;52.038;20.322;2022-10-16T02:33:56;28.07;;;17.00;;
37543;SDS011;23385;52.038;20.322;2022-10-16T02:36:24;20.47;;;15.70;;
37543;SDS011;23385;52.038;20.322;2022-10-16T02:38:51;24.27;;;15.83;;
37543;SDS011;23385;52.038;20.322;2022-10-16T02:41:18;24.07;;;15.40;;
37543;SDS011;23385;52.038;20.322;2022-10-16T02:43:46;21.07;;;15.87;;
37543;SDS011;23385;52.038;20.322;2022-10-16T02:46:12;21.30;;;16.37;;
37543;SDS011;23385;52.038;20.322;2022-10-16T02:48:38;21.17;;;16.07;;
37543;SDS011;23385;52.038;20.322;2022-10-16T02:51:04;20.80;;;16.60;;
37543;SDS011;23385;52.038;20.322;2022-10-16T02:53:30;20.50;;;16.13;;
37543;SDS011;23385;52.038;20.322;2022-10-16T02:55:57;27.93;;;16.30;;
37543;SDS011;23385;52.038;20.322;2022-10-16T02:58:22;22.60;;;16.10;;
37543;SDS011;23385;52.038;20.322;2022-10-16T03:00:48;29.00;;;17.10;;
37543;SDS011;23385;52.038;20.322;2022-10-16T03:03:15;24.23;;;17.27;;
37543;SDS011;23385;52.038;20.322;2022-10-16T03:05:42;23.87;;;17.10;;
37543;SDS011;23385;52.038;20.322;2022-10-16T03:08:11;25.03;;;17.33;;
37543;SDS011;23385;52.038;20.322;2022-10-16T03:10:37;25.90;;;15.73;;
37543;SDS011;23385;52.038;20.322;2022-10-16T03:13:04;22.10;;;16.07;;
37543;SDS011;23385;52.038;20.322;2022-10-16T03:15:31;22.17;;;16.70;;
37543;SDS011;23385;52.038;20.322;2022-10-16T03:17:57;24.90;;;17.07;;
37543;SDS011;23385;52.038;20.322;2022-10-16T03:20:23;29.87;;;17.50;;
37543;SDS011;23385;52.038;20.322;2022-10-16T03:22:50;22.90;;;16.53;;
37543;SDS011;23385;52.038;20.322;2022-10-16T03:25:16;27.23;;;17.07;;
37543;SDS011;23385;52.038;20.322;2022-10-16T03:27:43;26.80;;;18.73;;
37543;SDS011;23385;52.038;20.322;2022-10-16T03:30:09;24.30;;;17.20;;
37543;SDS011;23385;52.038;20.322;2022-10-16T03:32:36;26.70;;;17.27;;
37543;SDS011;23385;52.038;20.322;2022-10-16T03:35:03;22.27;;;17.00;;
37543;SDS011;23385;52.038;20.322;2022-10-16T03:37:30;25.03;;;16.27;;
37543;SDS011;23385;52.038;20.322;2022-10-16T03:39:56;23.03;;;17.27;;
37543;SDS011;23385;52.038;20.322;2022-10-16T03:42:22;22.60;;;16.90;;
37543;SDS011;23385;52.038;20.322;2022-10-16T03:44:47;20.93;;;17.23;;
37543;SDS011;23385;52.038;20.322;2022-10-16T03:47:13;27.87;;;17.50;;
37543;SDS011;23385;52.038;20.322;2022-10-16T03:49:39;25.53;;;17.00;;
37543;SDS011;23385;52.038;20.322;2022-10-16T03:52:06;26.37;;;18.67;;
37543;SDS011;23385;52.038;20.322;2022-10-16T03:54:33;24.27;;;17.70;;
37543;SDS011;23385;52.038;20.322;2022-10-16T03:56:59;27.97;;;18.70;;
37543;SDS011;23385;52.038;20.322;2022-10-16T03:59:26;33.87;;;18.37;;
37543;SDS011;23385;52.038;20.322;2022-10-16T04:01:52;25.53;;;18.30;;
37543;SDS011;23385;52.038;20.322;2022-10-16T04:04:18;25.17;;;18.73;;
37543;SDS011;23385;52.038;20.322;2022-10-16T04:06:43;24.17;;;17.77;;
37543;SDS011;23385;52.038;20.322;2022-10-16T04:09:10;21.47;;;17.47;;
37543;SDS011;23385;52.038;20.322;2022-10-16T04:11:36;24.37;;;18.03;;
37543;SDS011;23385;52.038;20.322;2022-10-16T04:14:04;24.80;;;18.40;;
37543;SDS011;23385;52.038;20.322;2022-10-16T04:16:30;25.37;;;19.00;;
37543;SDS011;23385;52.038;20.322;2022-10-16T04:18:59;31.33;;;19.23;;
37543;SDS011;23385;52.038;20.322;2022-10-16T04:21:25;26.77;;;19.20;;
37543;SDS011;23385;52.038;20.322;2022-10-16T04:23:51;23.70;;;18.40;;
37543;SDS011;23385;52.038;20.322;2022-10-16T04:26:17;26.67;;;19.20;;
37543;SDS011;23385;52.038;20.322;2022-10-16T04:28:43;26.77;;;18.10;;
37543;SDS011;23385;52.038;20.322;2022-10-16T04:31:09;23.93;;;17.20;;
37543;SDS011;23385;52.038;20.322;2022-10-16T04:33:36;22.37;;;16.93;;
37543;SDS011;23385;52.038;20.322;2022-10-16T04:36:02;23.77;;;17.47;;
37543;SDS011;23385;52.038;20.322;2022-10-16T04:38:28;25.17;;;17.80;;
37543;SDS011;23385;52.038;20.322;2022-10-16T04:40:54;27.47;;;18.47;;
37543;SDS011;23385;52.038;20.322;2022-10-16T04:43:22;27.47;;;18.37;;
37543;SDS011;23385;52.038;20.322;2022-10-16T04:45:48;26.73;;;18.77;;
37543;SDS011;23385;52.038;20.322;2022-10-16T04:48:15;27.00;;;18.10;;
37543;SDS011;23385;52.038;20.322;2022-10-16T04:50:43;27.43;;;18.83;;
37543;SDS011;23385;52.038;20.322;2022-10-16T04:53:09;26.20;;;19.57;;
37543;SDS011;23385;52.038;20.322;2022-10-16T04:55:37;22.23;;;17.83;;
37543;SDS011;23385;52.038;20.322;2022-10-16T04:58:03;28.23;;;18.63;;
37543;SDS011;23385;52.038;20.322;2022-10-16T05:00:29;23.63;;;19.43;;
37543;SDS011;23385;52.038;20.322;2022-10-16T05:02:56;25.53;;;18.30;;
37543;SDS011;23385;52.038;20.322;2022-10-16T05:05:24;23.00;;;18.47;;
37543;SDS011;23385;52.038;20.322;2022-10-16T05:07:51;25.17;;;19.50;;
37543;SDS011;23385;52.038;20.322;2022-10-16T05:10:17;24.70;;;19.07;;
37543;SDS011;23385;52.038;20.322;2022-10-16T05:12:43;24.73;;;19.27;;
37543;SDS011;23385;52.038;20.322;2022-10-16T05:15:09;28.93;;;18.97;;
37543;SDS011;23385;52.038;20.322;2022-10-16T05:17:35;23.50;;;19.87;;
37543;SDS011;23385;52.038;20.322;2022-10-16T05:20:01;26.30;;;20.63;;
37543;SDS011;23385;52.038;20.322;2022-10-16T05:22:28;27.17;;;19.63;;
37543;SDS011;23385;52.038;20.322;2022-10-16T05:24:55;23.57;;;19.50;;
37543;SDS011;23385;52.038;20.322;2022-10-16T05:27:22;25.90;;;19.27;;
37543;SDS011;23385;52.038;20.322;2022-10-16T05:29:48;25.80;;;19.87;;
37543;SDS011;23385;52.038;20.322;2022-10-16T05:32:15;32.30;;;20.33;;
37543;SDS011;23385;52.038;20.322;2022-10-16T05:34:41;25.70;;;19.57;;
37543;SDS011;23385;52.038;20.322;2022-10-16T05:37:08;24.03;;;19.83;;
37543;SDS011;23385;52.038;20.322;2022-10-16T05:39:34;24.03;;;19.50;;
37543;SDS011;23385;52.038;20.322;2022-10-16T05:42:02;28.80;;;19.83;;
37543;SDS011;23385;52.038;20.322;2022-10-16T05:44:28;25.60;;;20.33;;
37543;SDS011;23385;52.038;20.322;2022-10-16T05:46:54;26.60;;;19.90;;
37543;SDS011;23385;52.038;20.322;2022-10-16T05:49:20;26.47;;;19.67;;
37543;SDS011;23385;52.038;20.322;2022-10-16T05:51:47;28.83;;;19.73;;
37543;SDS011;23385;52.038;20.322;2022-10-16T05:54:13;24.60;;;19.63;;
37543;SDS011;23385;52.038;20.322;2022-10-16T05:56:39;24.57;;;19.60;;
37543;SDS011;23385;52.038;20.322;2022-10-16T05:59:05;27.57;;;19.23;;
37543;SDS011;23385;52.038;20.322;2022-10-16T06:01:31;26.30;;;18.77;;
37543;SDS011;23385;52.038;20.322;2022-10-16T06:03:58;28.07;;;19.40;;
37543;SDS011;23385;52.038;20.322;2022-10-16T06:06:25;26.27;;;18.83;;
37543;SDS011;23385;52.038;20.322;2022-10-16T06:08:53;26.40;;;19.47;;
37543;SDS011;23385;52.038;20.322;2022-10-16T06:11:24;26.67;;;18.47;;
37543;SDS011;23385;52.038;20.322;2022-10-16T06:13:52;25.13;;;19.43;;
37543;SDS011;23385;52.038;20.322;2022-10-16T06:16:21;24.33;;;19.17;;
37543;SDS011;23385;52.038;20.322;2022-10-16T06:18:47;24.83;;;19.23;;
37543;SDS011;23385;52.038;20.322;2022-10-16T06:21:19;24.47;;;19.17;;
37543;SDS011;23385;52.038;20.322;2022-10-16T06:23:47;23.27;;;18.37;;
37543;SDS011;23385;52.038;20.322;2022-10-16T06:26:14;27.00;;;19.33;;
37543;SDS011;23385;52.038;20.322;2022-10-16T06:28:41;25.13;;;18.80;;
37543;SDS011;23385;52.038;20.322;2022-10-16T06:31:09;25.20;;;18.67;;
37543;SDS011;23385;52.038;20.322;2022-10-16T06:33:36;24.13;;;18.07;;
37543;SDS011;23385;52.038;20.322;2022-10-16T06:36:04;29.00;;;18.20;;
37543;SDS011;23385;52.038;20.322;2022-10-16T06:38:32;27.53;;;18.53;;
37543;SDS011;23385;52.038;20.322;2022-10-16T06:40:59;26.37;;;18.13;;
37543;SDS011;23385;52.038;20.322;2022-10-16T06:43:25;21.93;;;17.23;;
37543;SDS011;23385;52.038;20.322;2022-10-16T06:45:52;22.00;;;17.80;;
37543;SDS011;23385;52.038;20.322;2022-10-16T06:48:19;22.60;;;17.13;;
37543;SDS011;23385;52.038;20.322;2022-10-16T06:51:05;23.63;;;16.00;;
37543;SDS011;23385;52.038;20.322;2022-10-16T06:53:36;21.70;;;16.10;;
37543;SDS011;23385;52.038;20.322;2022-10-16T06:56:12;21.13;;;16.63;;
37543;SDS011;23385;52.038;20.322;2022-10-16T06:58:39;20.53;;;16.17;;
37543;SDS011;23385;52.038;20.322;2022-10-16T07:01:07;21.40;;;16.40;;
37543;SDS011;23385;52.038;20.322;2022-10-16T07:03:33;22.07;;;15.43;;
37543;SDS011;23385;52.038;20.322;2022-10-16T07:06:07;18.73;;;15.67;;
37543;SDS011;23385;52.038;20.322;2022-10-16T07:08:37;22.50;;;15.10;;
37543;SDS011;23385;52.038;20.322;2022-10-16T07:11:05;18.87;;;15.03;;
37543;SDS011;23385;52.038;20.322;2022-10-16T07:13:38;17.93;;;15.07;;
37543;SDS011;23385;52.038;20.322;2022-10-16T07:16:06;16.40;;;14.20;;
37543;SDS011;23385;52.038;20.322;2022-10-16T07:18:33;19.27;;;14.93;;
37543;SDS011;23385;52.038;20.322;2022-10-16T07:21:05;19.07;;;13.97;;
37543;SDS011;23385;52.038;20.322;2022-10-16T07:23:33;19.03;;;14.70;;
37543;SDS011;23385;52.038;20.322;2022-10-16T07:26:24;19.57;;;14.07;;
37543;SDS011;23385;52.038;20.322;2022-10-16T07:28:50;18.37;;;14.90;;
37543;SDS011;23385;52.038;20.322;2022-10-16T07:31:18;19.30;;;13.33;;
37543;SDS011;23385;52.038;20.322;2022-10-16T07:33:45;17.63;;;13.47;;
37543;SDS011;23385;52.038;20.322;2022-10-16T07:36:13;16.53;;;14.00;;
37543;SDS011;23385;52.038;20.322;2022-10-16T07:38:50;15.90;;;13.20;;
37543;SDS011;23385;52.038;20.322;2022-10-16T07:41:19;20.10;;;14.00;;
37543;SDS011;23385;52.038;20.322;2022-10-16T07:43:45;15.60;;;12.63;;
37543;SDS011;23385;52.038;20.322;2022-10-16T07:46:14;22.53;;;13.20;;
37543;SDS011;23385;52.038;20.322;2022-10-16T07:48:40;16.92;;;12.50;;
37543;SDS011;23385;52.038;20.322;2022-10-16T07:51:10;17.87;;;13.20;;
37543;SDS011;23385;52.038;20.322;2022-10-16T07:53:38;20.10;;;13.23;;
37543;SDS011;23385;52.038;20.322;2022-10-16T07:56:05;18.40;;;12.97;;
37543;SDS011;23385;52.038;20.322;2022-10-16T07:58:33;14.40;;;12.27;;
37543;SDS011;23385;52.038;20.322;2022-10-16T08:01:08;16.90;;;12.45;;
37543;SDS011;23385;52.038;20.322;2022-10-16T08:03:36;19.07;;;13.93;;
37543;SDS011;23385;52.038;20.322;2022-10-16T08:06:04;14.77;;;12.38;;
37543;SDS011;23385;52.038;20.322;2022-10-16T08:08:30;15.37;;;13.27;;
37543;SDS011;23385;52.038;20.322;2022-10-16T08:10:57;17.58;;;12.85;;
37543;SDS011;23385;52.038;20.322;2022-10-16T08:13:23;19.88;;;12.68;;
37543;SDS011;23385;52.038;20.322;2022-10-16T08:15:51;22.45;;;12.80;;
37543;SDS011;23385;52.038;20.322;2022-10-16T08:18:19;18.47;;;13.17;;
37543;SDS011;23385;52.038;20.322;2022-10-16T08:20:45;15.77;;;12.65;;
37543;SDS011;23385;52.038;20.322;2022-10-16T08:23:11;22.73;;;13.23;;
37543;SDS011;23385;52.038;20.322;2022-10-16T08:25:39;16.07;;;13.50;;
37543;SDS011;23385;52.038;20.322;2022-10-16T08:28:06;20.75;;;13.95;;
37543;SDS011;23385;52.038;20.322;2022-10-16T08:30:34;21.90;;;14.00;;
37543;SDS011;23385;52.038;20.322;2022-10-16T08:33:02;20.30;;;13.95;;
37543;SDS011;23385;52.038;20.322;2022-10-16T08:35:35;17.87;;;13.17;;
37543;SDS011;23385;52.038;20.322;2022-10-16T08:38:04;19.20;;;14.18;;
37543;SDS011;23385;52.038;20.322;2022-10-16T08:40:41;16.37;;;13.33;;
37543;SDS011;23385;52.038;20.322;2022-10-16T08:48:48;17.60;;;13.23;;
37543;SDS011;23385;52.038;20.322;2022-10-16T08:51:26;18.43;;;13.90;;
37543;SDS011;23385;52.038;20.322;2022-10-16T08:56:56;17.75;;;14.05;;
37543;SDS011;23385;52.038;20.322;2022-10-16T08:59:32;17.00;;;13.90;;
37543;SDS011;23385;52.038;20.322;2022-10-16T09:01:58;17.17;;;12.95;;
37543;SDS011;23385;52.038;20.322;2022-10-16T09:04:40;17.10;;;12.70;;
37543;SDS011;23385;52.038;20.322;2022-10-16T09:11:08;19.65;;;13.13;;
37543;SDS011;23385;52.038;20.322;2022-10-16T09:16:30;18.02;;;14.30;;
37543;SDS011;23385;52.038;20.322;2022-10-16T09:19:03;15.15;;;12.82;;
37543;SDS011;23385;52.038;20.322;2022-10-16T09:21:41;23.60;;;14.05;;
37543;SDS011;23385;52.038;20.322;2022-10-16T09:24:23;20.10;;;13.85;;
37543;SDS011;23385;52.038;20.322;2022-10-16T09:26:51;15.52;;;12.82;;
37543;SDS011;23385;52.038;20.322;2022-10-16T09:29:18;18.55;;;13.88;;
37543;SDS011;23385;52.038;20.322;2022-10-16T09:31:50;15.98;;;12.90;;
37543;SDS011;23385;52.038;20.322;2022-10-16T09:34:33;15.90;;;12.45;;
37543;SDS011;23385;52.038;20.322;2022-10-16T09:37:09;19.30;;;13.15;;
37543;SDS011;23385;52.038;20.322;2022-10-16T09:42:31;14.00;;;12.60;;
37543;SDS011;23385;52.038;20.322;2022-10-16T09:45:02;20.23;;;12.98;;
37543;SDS011;23385;52.038;20.322;2022-10-16T09:47:29;15.93;;;12.70;;
37543;SDS011;23385;52.038;20.322;2022-10-16T09:56:11;18.00;;;12.15;;
37543;SDS011;23385;52.038;20.322;2022-10-16T09:58:49;17.48;;;12.18;;
37543;SDS011;23385;52.038;20.322;2022-10-16T10:01:16;17.90;;;11.98;;
37543;SDS011;23385;52.038;20.322;2022-10-16T10:03:43;15.55;;;12.82;;
37543;SDS011;23385;52.038;20.322;2022-10-16T10:14:21;13.88;;;11.50;;
37543;SDS011;23385;52.038;20.322;2022-10-16T10:17:21;14.18;;;11.70;;
37543;SDS011;23385;52.038;20.322;2022-10-16T10:19:53;13.82;;;11.40;;
37543;SDS011;23385;52.038;20.322;2022-10-16T10:22:28;17.08;;;11.40;;
37543;SDS011;23385;52.038;20.322;2022-10-16T10:27:59;18.20;;;11.88;;
37543;SDS011;23385;52.038;20.322;2022-10-16T10:33:46;14.63;;;11.23;;
37543;SDS011;23385;52.038;20.322;2022-10-16T10:36:46;17.67;;;11.77;;
37543;SDS011;23385;52.038;20.322;2022-10-16T10:39:25;18.25;;;11.40;;
37543;SDS011;23385;52.038;20.322;2022-10-16T10:42:04;15.35;;;11.82;;
37543;SDS011;23385;52.038;20.322;2022-10-16T10:45:18;12.95;;;10.80;;
37543;SDS011;23385;52.038;20.322;2022-10-16T10:51:06;19.00;;;11.25;;
37543;SDS011;23385;52.038;20.322;2022-10-16T11:01:50;17.90;;;11.77;;
37543;SDS011;23385;52.038;20.322;2022-10-16T11:07:05;12.07;;;10.63;;
37543;SDS011;23385;52.038;20.322;2022-10-16T11:09:37;12.57;;;10.80;;
37543;SDS011;23385;52.038;20.322;2022-10-16T11:12:27;15.98;;;11.80;;
37543;SDS011;23385;52.038;20.322;2022-10-16T11:15:11;14.32;;;11.38;;
37543;SDS011;23385;52.038;20.322;2022-10-16T11:17:52;15.23;;;11.40;;
37543;SDS011;23385;52.038;20.322;2022-10-16T11:20:50;14.60;;;11.85;;
37543;SDS011;23385;52.038;20.322;2022-10-16T11:26:21;18.00;;;11.05;;
37543;SDS011;23385;52.038;20.322;2022-10-16T11:28:54;15.25;;;12.23;;
37543;SDS011;23385;52.038;20.322;2022-10-16T11:31:25;12.60;;;10.30;;
37543;SDS011;23385;52.038;20.322;2022-10-16T11:33:59;14.13;;;11.38;;
37543;SDS011;23385;52.038;20.322;2022-10-16T11:39:25;12.32;;;10.60;;
37543;SDS011;23385;52.038;20.322;2022-10-16T11:50:27;22.23;;;14.45;;
37543;SDS011;23385;52.038;20.322;2022-10-16T11:53:01;16.20;;;10.88;;
37543;SDS011;23385;52.038;20.322;2022-10-16T11:55:40;14.32;;;10.45;;
37543;SDS011;23385;52.038;20.322;2022-10-16T12:03:31;14.15;;;9.82;;
37543;SDS011;23385;52.038;20.322;2022-10-16T12:09:05;9.68;;;7.90;;
37543;SDS011;23385;52.038;20.322;2022-10-16T12:11:42;11.82;;;8.65;;
37543;SDS011;23385;52.038;20.322;2022-10-16T12:16:51;9.50;;;8.25;;
37543;SDS011;23385;52.038;20.322;2022-10-16T12:19:18;11.70;;;7.82;;
37543;SDS011;23385;52.038;20.322;2022-10-16T12:21:44;10.05;;;7.68;;
37543;SDS011;23385;52.038;20.322;2022-10-16T12:24:32;10.30;;;8.57;;
37543;SDS011;23385;52.038;20.322;2022-10-16T12:26:59;9.98;;;8.07;;
37543;SDS011;23385;52.038;20.322;2022-10-16T12:29:41;11.15;;;8.82;;
37543;SDS011;23385;52.038;20.322;2022-10-16T12:32:22;10.50;;;8.15;;
37543;SDS011;23385;52.038;20.322;2022-10-16T12:35:04;12.15;;;8.82;;
37543;SDS011;23385;52.038;20.322;2022-10-16T12:37:42;11.10;;;7.63;;
37543;SDS011;23385;52.038;20.322;2022-10-16T12:40:14;14.30;;;7.63;;
37543;SDS011;23385;52.038;20.322;2022-10-16T12:42:52;10.25;;;7.68;;
37543;SDS011;23385;52.038;20.322;2022-10-16T12:48:02;12.13;;;7.88;;
37543;SDS011;23385;52.038;20.322;2022-10-16T12:50:44;9.20;;;7.03;;
37543;SDS011;23385;52.038;20.322;2022-10-16T12:53:22;11.13;;;6.53;;
37543;SDS011;23385;52.038;20.322;2022-10-16T12:56:04;8.85;;;5.68;;
37543;SDS011;23385;52.038;20.322;2022-10-16T13:01:09;9.05;;;6.10;;
37543;SDS011;23385;52.038;20.322;2022-10-16T13:06:54;9.13;;;5.38;;
37543;SDS011;23385;52.038;20.322;2022-10-16T13:18:21;8.20;;;6.63;;
37543;SDS011;23385;52.038;20.322;2022-10-16T13:26:31;8.35;;;7.03;;
37543;SDS011;23385;52.038;20.322;2022-10-16T13:29:04;10.35;;;7.00;;
37543;SDS011;23385;52.038;20.322;2022-10-16T13:31:30;11.65;;;6.55;;
37543;SDS011;23385;52.038;20.322;2022-10-16T13:33:57;10.75;;;6.53;;
37543;SDS011;23385;52.038;20.322;2022-10-16T13:36:28;7.10;;;6.40;;
37543;SDS011;23385;52.038;20.322;2022-10-16T13:39:29;11.82;;;6.90;;
37543;SDS011;23385;52.038;20.322;2022-10-16T13:44:28;8.60;;;6.20;;
